^^
Meteo Knjazevac Station Historical Data
Daily Summary for May 29, 2022 Units:  English    Metric   Both
Daily Weekly Monthly Yearly Custom
  High: Low: Average:
Temperature: 60.4 °F 55.4 °F 56.7 °F
Dew Point: 57.1 °F 53.7 °F 54.9 °F
Humidity: 95% 89% 94%
Wind Speed: 6mph 1mph 3.2mph
Wind Gust: 10mph - -
Wind- - SW
Pressure: 30.02 in 29.94 in -
Precipitation: 0.01 in    
Historical Graphs
 
 
Tabular Data for May 29, 2022
Time Temperature Dew Point Pressure Wind Wind Speed Wind Gust Humidity Rainfall Rate (Hourly) solar Conditions
00:00 58.8 °F 57.1 °F 30.01 in SW 5 mph 8 mph 94% 0.00 in 0 W/m2
00:10 58.5 °F 56.4 °F 30.02 in SW 6 mph 10 mph 93% 0.00 in 0 W/m2
00:20 58.3 °F 56.3 °F 30.01 in SW 2 mph 8 mph 93% 0.00 in 0 W/m2
00:30 58.1 °F 56.4 °F 30.01 in SW 2 mph 5 mph 94% 0.00 in 0 W/m2
00:40 57.9 °F 56.2 °F 30.01 in SSW 3 mph 9 mph 94% 0.00 in 0 W/m2
00:50 57.6 °F 55.8 °F 30.01 in SW 1 mph 6 mph 94% 0.00 in 0 W/m2
01:00 57.4 °F 55.7 °F 30.00 in West 2 mph 4 mph 94% 0.00 in 0 W/m2
01:10 57.2 °F 55.8 °F 30.01 in SSW 5 mph 6 mph 95% 0.00 in 0 W/m2
01:20 57 °F 55.6 °F 30.00 in SW 2 mph 5 mph 95% 0.00 in 0 W/m2
01:30 57 °F 55.6 °F 29.99 in SSW 2 mph 4 mph 95% 0.00 in 0 W/m2
01:40 57 °F 55.6 °F 29.99 in SW 2 mph 5 mph 95% 0.00 in 0 W/m2
01:50 57 °F 55.6 °F 30.00 in SW 3 mph 5 mph 95% 0.00 in 0 W/m2
02:00 57 °F 55.6 °F 30.00 in SSW 2 mph 5 mph 95% 0.00 in 0 W/m2
02:10 56.8 °F 55.4 °F 29.99 in WSW 1 mph 4 mph 95% 0.00 in 0 W/m2
02:20 56.8 °F 55.4 °F 29.98 in WNW 2 mph 4 mph 95% 0.00 in 0 W/m2
02:30 56.7 °F 55.3 °F 29.98 in WNW 3 mph 5 mph 95% 0.00 in 0 W/m2
02:40 56.6 °F 55.2 °F 29.98 in West 2 mph 6 mph 95% 0.00 in 0 W/m2
02:50 56.5 °F 55.1 °F 29.97 in WSW 2 mph 5 mph 95% 0.00 in 0 W/m2
03:00 56.5 °F 55.1 °F 29.98 in SW 5 mph 7 mph 95% 0.00 in 0 W/m2
03:10 56.5 °F 55.1 °F 29.97 in WSW 3 mph 7 mph 95% 0.00 in 0 W/m2
03:20 56.4 °F 55 °F 29.97 in WSW 3 mph 7 mph 95% 0.00 in 0 W/m2
03:30 56.3 °F 54.9 °F 29.97 in WSW 3 mph 6 mph 95% 0.00 in 0 W/m2
03:40 56.2 °F 54.8 °F 29.97 in SW 3 mph 7 mph 95% 0.00 in 0 W/m2
03:50 56.1 °F 54.7 °F 29.97 in SW 5 mph 7 mph 95% 0.00 in 0 W/m2
04:00 56 °F 54.6 °F 29.96 in SW 5 mph 8 mph 95% 0.00 in 0 W/m2
04:10 55.9 °F 54.5 °F 29.96 in SW 5 mph 8 mph 95% 0.00 in 0 W/m2
04:20 55.8 °F 54.3 °F 29.96 in SW 3 mph 9 mph 95% 0.00 in 0 W/m2
04:30 55.8 °F 54.3 °F 29.96 in SSW 2 mph 5 mph 95% 0.00 in 0 W/m2
04:40 55.8 °F 54.3 °F 29.95 in SSW 1 mph 4 mph 95% 0.00 in 0 W/m2
04:50 55.8 °F 54.3 °F 29.95 in SSW 1 mph 4 mph 95% 0.00 in 0 W/m2
05:00 55.8 °F 54.3 °F 29.95 in SW 2 mph 5 mph 95% 0.00 in 1 W/m2
05:10 55.8 °F 54.3 °F 29.95 in WSW 2 mph 5 mph 95% 0.00 in 5 W/m2
05:20 55.9 °F 54.5 °F 29.95 in WSW 2 mph 4 mph 95% 0.00 in 8 W/m2
05:30 55.9 °F 54.5 °F 29.95 in WSW 3 mph 6 mph 95% 0.00 in 11 W/m2
05:40 55.9 °F 54.5 °F 29.95 in SW 5 mph 7 mph 95% 0.00 in 9 W/m2
05:50 55.8 °F 54.3 °F 29.95 in SW 6 mph 7 mph 95% 0.00 in 12 W/m2
06:00 55.6 °F 54.2 °F 29.95 in SW 3 mph 8 mph 95% 0.00 in 14 W/m2
06:10 55.4 °F 54 °F 29.95 in SW 5 mph 9 mph 95% 0.00 in 20 W/m2
06:20 55.4 °F 54 °F 29.95 in SW 2 mph 7 mph 95% 0.00 in 31 W/m2
06:30 55.4 °F 54 °F 29.95 in SW 3 mph 7 mph 95% 0.00 in 38 W/m2
06:40 55.4 °F 54 °F 29.95 in SW 3 mph 6 mph 95% 0.00 in 39 W/m2
06:50 55.4 °F 54 °F 29.94 in SW 2 mph 5 mph 95% 0.00 in 35 W/m2
07:00 55.6 °F 54.2 °F 29.95 in SW 2 mph 3 mph 95% 0.00 in 34 W/m2
07:10 55.7 °F 54.3 °F 29.95 in SW 5 mph 6 mph 95% 0.00 in 69 W/m2
07:20 55.8 °F 54.1 °F 29.95 in WSW 5 mph 7 mph 94% 0.00 in 95 W/m2
07:30 55.7 °F 54 °F 29.95 in SW 3 mph 7 mph 94% 0.00 in 74 W/m2
07:40 55.7 °F 54 °F 29.95 in SW 5 mph 7 mph 94% 0.00 in 101 W/m2
07:50 55.9 °F 53.9 °F 29.96 in SW 3 mph 7 mph 93% 0.00 in 84 W/m2
08:00 56.1 °F 54.1 °F 29.95 in SW 6 mph 9 mph 93% 0.00 in 118 W/m2
08:10 56.1 °F 54.1 °F 29.95 in SW 5 mph 7 mph 93% 0.00 in 135 W/m2
08:20 56.3 °F 54 °F 29.95 in SW 5 mph 7 mph 92% 0.00 in 126 W/m2
08:30 56.3 °F 53.7 °F 29.94 in SW 3 mph 7 mph 91% 0.00 in 132 W/m2
08:40 56.5 °F 54.5 °F 29.94 in SW 5 mph 6 mph 93% 0.00 in 204 W/m2
08:50 56.7 °F 54.1 °F 29.95 in SW 5 mph 7 mph 91% 0.00 in 115 W/m2
09:00 56.8 °F 54.2 °F 29.94 in SW 3 mph 7 mph 91% 0.00 in 136 W/m2
09:10 56.8 °F 54.2 °F 29.95 in SW 3 mph 7 mph 91% 0.00 in 127 W/m2
09:20 56.8 °F 54.2 °F 29.94 in SW 3 mph 7 mph 91% 0.00 in 334 W/m2
09:30 57.4 °F 54.5 °F 29.94 in SW 3 mph 6 mph 90% 0.00 in 208 W/m2
09:40 57.6 °F 54.6 °F 29.95 in SW 3 mph 6 mph 90% 0.00 in 294 W/m2
09:50 58.3 °F 55.7 °F 29.94 in SW 3 mph 7 mph 91% 0.00 in 402 W/m2
10:00 58.9 °F 56 °F 29.94 in SW 3 mph 7 mph 90% 0.01 in 392 W/m2
10:10 59.5 °F 56.3 °F 29.94 in SW 2 mph 7 mph 89% 0.00 in 357 W/m2
10:20 60 °F 56.8 °F 29.94 in SW 3 mph 6 mph 89% 0.00 in 303 W/m2
10:30 60.4 °F 57.1 °F 29.94 in WSW 3 mph 5 mph 89% 0.00 in 305 W/m2
Knjazevac, Serbia
Compliments of Weather Underground - 2 mb